Time;durP1;ratioP1;P1;durP2;ratioP2;P2;SDS_P1;SDS_P2;PMS_P1;PMS_P2;Temp;Humidity;BMP_temperature;BMP_pressure;BME280_temperature;BME280_humidity;BME280_pressure;Samples;Min_cycle;Max_cycle;Signal;HPM_P1;HPM_P2
2024/01/21 00:02:41;;;;;;;13.48;9.20;;;;;;;;;;6278333;28;20101;-68
2024/01/21 00:05:44;;;;;;;16.67;9.43;;;;;;;;;;6275520;28;20574;-69
2024/01/21 00:08:46;;;;;;;14.05;8.30;;;;;;;;;;6275902;28;20045;-69
2024/01/21 00:11:48;;;;;;;17.17;9.43;;;;;;;;;;6281776;28;20036;-69
2024/01/21 00:14:50;;;;;;;18.42;8.52;;;;;;;;;;6284208;28;20533;-69
2024/01/21 00:17:52;;;;;;;16.75;9.05;;;;;;;;;;6283374;28;20033;-69
2024/01/21 00:20:54;;;;;;;13.18;7.80;;;;;;;;;;6282286;28;20126;-69
2024/01/21 00:23:56;;;;;;;19.45;10.07;;;;;;;;;;6283457;28;20057;-70
2024/01/21 00:26:58;;;;;;;16.65;11.90;;;;;;;;;;6265345;28;20732;-70
2024/01/21 00:30:00;;;;;;;20.77;8.55;;;;;;;;;;6276029;28;20621;-69
2024/01/21 00:33:03;;;;;;;18.30;9.60;;;;;;;;;;6276717;28;20525;-69
2024/01/21 00:36:07;;;;;;;13.00;8.45;;;;;;;;;;6283302;28;20098;-70
2024/01/21 00:39:10;;;;;;;16.23;9.20;;;;;;;;;;6283408;28;20541;-70
2024/01/21 00:42:12;;;;;;;14.98;7.60;;;;;;;;;;6277780;28;20097;-69
2024/01/21 00:45:14;;;;;;;15.52;9.38;;;;;;;;;;6280124;28;20070;-70
2024/01/21 00:48:16;;;;;;;15.52;8.77;;;;;;;;;;6277695;28;20049;-69
2024/01/21 00:51:19;;;;;;;15.30;8.55;;;;;;;;;;6283240;28;20458;-70
2024/01/21 00:54:21;;;;;;;16.88;8.32;;;;;;;;;;6275553;28;20178;-70
2024/01/21 00:57:23;;;;;;;13.57;8.27;;;;;;;;;;6282793;28;20051;-69
2024/01/21 01:00:27;;;;;;;10.02;7.78;;;;;;;;;;6280349;28;20621;-69
2024/01/21 01:03:29;;;;;;;12.05;7.18;;;;;;;;;;6279364;28;20045;-70
2024/01/21 01:06:32;;;;;;;13.45;8.40;;;;;;;;;;6282021;28;20539;-68
2024/01/21 01:09:36;;;;;;;16.13;8.48;;;;;;;;;;6283625;28;20040;-69
2024/01/21 01:12:40;;;;;;;17.00;8.63;;;;;;;;;;6287836;28;20051;-68
2024/01/21 01:15:42;;;;;;;22.45;8.98;;;;;;;;;;6278679;28;20043;-68
2024/01/21 01:18:44;;;;;;;21.75;11.57;;;;;;;;;;6287647;28;20166;-68
2024/01/21 01:21:46;;;;;;;24.00;11.90;;;;;;;;;;6274045;28;20056;-68
2024/01/21 01:24:48;;;;;;;21.25;10.85;;;;;;;;;;6269394;28;20114;-69
2024/01/21 01:27:51;;;;;;;19.33;10.55;;;;;;;;;;6285701;28;20041;-68
2024/01/21 01:30:53;;;;;;;17.75;9.70;;;;;;;;;;6274629;28;20048;-68
2024/01/21 01:33:56;;;;;;;18.73;10.73;;;;;;;;;;6278818;28;20194;-69
2024/01/21 01:36:58;;;;;;;17.58;9.18;;;;;;;;;;6281830;28;20522;-67
2024/01/21 01:40:00;;;;;;;14.98;9.18;;;;;;;;;;6280050;28;20045;-68
2024/01/21 01:43:03;;;;;;;21.33;9.70;;;;;;;;;;6283385;28;20056;-68
2024/01/21 01:46:05;;;;;;;19.00;8.80;;;;;;;;;;6280570;28;20075;-69
2024/01/21 01:49:08;;;;;;;15.93;9.60;;;;;;;;;;6278528;28;20045;-68
2024/01/21 01:52:13;;;;;;;18.05;9.93;;;;;;;;;;6269328;28;20081;-68
2024/01/21 01:55:15;;;;;;;18.88;8.88;;;;;;;;;;6282164;28;20041;-68
2024/01/21 01:58:18;;;;;;;17.15;9.40;;;;;;;;;;6286450;28;20826;-68
2024/01/21 02:01:20;;;;;;;12.98;9.15;;;;;;;;;;6271243;28;20048;-68
2024/01/21 02:04:23;;;;;;;15.48;8.45;;;;;;;;;;6273574;28;20640;-69
2024/01/21 02:07:26;;;;;;;15.85;9.35;;;;;;;;;;6282317;28;20550;-69
2024/01/21 02:10:31;;;;;;;16.55;9.60;;;;;;;;;;6286998;28;20056;-69
2024/01/21 02:13:33;;;;;;;21.10;11.88;;;;;;;;;;6280028;28;20056;-69
2024/01/21 02:16:35;;;;;;;16.92;11.02;;;;;;;;;;6268587;28;20041;-69
2024/01/21 02:19:38;;;;;;;22.52;12.15;;;;;;;;;;6287554;28;20044;-71
2024/01/21 02:22:41;;;;;;;20.58;9.25;;;;;;;;;;6286543;28;20037;-69
2024/01/21 02:25:43;;;;;;;15.40;9.48;;;;;;;;;;6285458;28;20163;-68
2024/01/21 02:28:45;;;;;;;16.80;8.38;;;;;;;;;;6279140;28;20135;-69
2024/01/21 02:31:47;;;;;;;15.70;12.43;;;;;;;;;;6284424;28;20366;-69
2024/01/21 02:34:49;;;;;;;18.38;9.80;;;;;;;;;;6285361;28;20091;-69
2024/01/21 02:37:51;;;;;;;13.25;9.38;;;;;;;;;;6300399;28;20047;-69
2024/01/21 02:40:53;;;;;;;16.95;9.27;;;;;;;;;;6285568;28;20056;-69
2024/01/21 02:43:55;;;;;;;16.83;9.80;;;;;;;;;;6284908;28;20435;-69
2024/01/21 02:46:57;;;;;;;14.77;8.75;;;;;;;;;;6281988;28;20053;-69
2024/01/21 02:50:00;;;;;;;13.77;7.93;;;;;;;;;;6280128;28;20067;-69
2024/01/21 02:53:02;;;;;;;15.40;9.00;;;;;;;;;;6282519;28;20048;-70
2024/01/21 02:56:04;;;;;;;10.73;6.50;;;;;;;;;;6284370;28;20060;-70
2024/01/21 02:59:06;;;;;;;8.90;6.45;;;;;;;;;;6273992;28;20048;-69
2024/01/21 03:02:08;;;;;;;13.90;7.60;;;;;;;;;;6285217;28;20048;-69
2024/01/21 03:05:10;;;;;;;17.15;8.35;;;;;;;;;;6269593;28;20052;-69
2024/01/21 03:08:14;;;;;;;10.88;7.25;;;;;;;;;;6266482;28;20057;-69
2024/01/21 03:11:16;;;;;;;13.57;6.88;;;;;;;;;;6282318;28;20091;-69
2024/01/21 03:14:19;;;;;;;18.55;9.85;;;;;;;;;;6278630;28;20049;-69
2024/01/21 03:17:21;;;;;;;14.20;7.72;;;;;;;;;;6279829;28;20051;-70
2024/01/21 03:20:23;;;;;;;19.10;12.68;;;;;;;;;;6281973;28;20040;-70
2024/01/21 03:23:25;;;;;;;10.85;5.55;;;;;;;;;;6271558;28;20056;-70
2024/01/21 03:26:27;;;;;;;8.52;4.88;;;;;;;;;;6284474;28;20088;-70
2024/01/21 03:29:30;;;;;;;14.52;13.02;;;;;;;;;;6273556;28;20056;-70
2024/01/21 03:32:32;;;;;;;12.45;7.20;;;;;;;;;;6280798;28;20638;-68
2024/01/21 03:35:34;;;;;;;7.30;5.70;;;;;;;;;;6277516;28;20527;-69
2024/01/21 03:38:36;;;;;;;10.70;9.55;;;;;;;;;;6279350;28;20418;-70
2024/01/21 03:41:38;;;;;;;7.13;6.03;;;;;;;;;;6282149;28;20048;-69
2024/01/21 03:44:41;;;;;;;9.07;8.40;;;;;;;;;;6276547;28;20554;-71
2024/01/21 03:47:43;;;;;;;10.68;6.30;;;;;;;;;;6280475;28;20036;-70
2024/01/21 03:50:45;;;;;;;4.80;4.22;;;;;;;;;;6300204;28;20041;-70
2024/01/21 03:53:48;;;;;;;5.82;3.95;;;;;;;;;;6281754;28;20059;-70
2024/01/21 03:56:50;;;;;;;5.10;4.63;;;;;;;;;;6264048;28;20048;-70
2024/01/21 03:59:53;;;;;;;3.67;3.35;;;;;;;;;;6274348;28;20058;-70
2024/01/21 04:02:55;;;;;;;5.15;4.28;;;;;;;;;;6273907;28;20530;-68
2024/01/21 04:05:57;;;;;;;3.42;2.15;;;;;;;;;;6283238;28;20051;-70
2024/01/21 04:08:59;;;;;;;3.90;3.60;;;;;;;;;;6283220;28;20052;-70
2024/01/21 04:12:02;;;;;;;4.43;3.90;;;;;;;;;;6283240;28;20059;-70
2024/01/21 04:15:04;;;;;;;7.05;4.68;;;;;;;;;;6283804;28;20053;-70
2024/01/21 04:18:06;;;;;;;3.45;2.38;;;;;;;;;;6289031;28;20052;-69
2024/01/21 04:21:08;;;;;;;4.05;3.72;;;;;;;;;;6287252;28;20052;-70
2024/01/21 04:24:10;;;;;;;2.72;1.88;;;;;;;;;;6282378;28;20127;-69
2024/01/21 04:27:12;;;;;;;3.75;2.83;;;;;;;;;;6289524;28;20063;-68
2024/01/21 04:30:15;;;;;;;6.63;3.97;;;;;;;;;;6287088;28;20068;-67
2024/01/21 04:33:17;;;;;;;5.50;3.50;;;;;;;;;;6287095;28;20044;-70
2024/01/21 04:36:22;;;;;;;6.68;5.40;;;;;;;;;;6281226;28;20104;-70
2024/01/21 04:39:25;;;;;;;4.72;3.97;;;;;;;;;;6278903;28;20484;-71
2024/01/21 04:42:27;;;;;;;5.88;5.35;;;;;;;;;;6277035;28;20424;-69
2024/01/21 04:45:29;;;;;;;19.50;9.80;;;;;;;;;;6288516;28;20562;-71
2024/01/21 04:48:33;;;;;;;10.40;8.35;;;;;;;;;;6286960;28;20047;-70
2024/01/21 04:51:38;;;;;;;8.77;5.95;;;;;;;;;;6287584;28;20048;-70
2024/01/21 04:54:40;;;;;;;6.53;4.30;;;;;;;;;;6281876;28;20086;-70
2024/01/21 04:57:42;;;;;;;7.65;3.92;;;;;;;;;;6288479;28;20056;-70
2024/01/21 05:00:44;;;;;;;4.22;2.55;;;;;;;;;;6277034;28;20269;-70
2024/01/21 05:03:47;;;;;;;5.28;1.77;;;;;;;;;;6288823;28;20523;-70
2024/01/21 05:06:49;;;;;;;2.13;1.33;;;;;;;;;;6287897;28;20055;-69
2024/01/21 05:09:51;;;;;;;2.72;2.53;;;;;;;;;;6286311;28;20049;-69
2024/01/21 05:12:54;;;;;;;2.92;2.17;;;;;;;;;;6280514;28;20515;-69
2024/01/21 05:15:56;;;;;;;9.00;3.53;;;;;;;;;;6274757;28;20083;-69
2024/01/21 05:18:58;;;;;;;5.40;2.15;;;;;;;;;;6281835;28;20033;-69
2024/01/21 05:22:02;;;;;;;3.78;3.00;;;;;;;;;;6276519;28;20049;-69
2024/01/21 05:25:04;;;;;;;6.80;2.97;;;;;;;;;;6282370;28;20051;-69
2024/01/21 05:28:06;;;;;;;3.20;2.85;;;;;;;;;;6300158;28;20044;-69
2024/01/21 05:31:08;;;;;;;8.90;8.38;;;;;;;;;;6276123;28;20763;-71
2024/01/21 05:34:10;;;;;;;6.85;4.30;;;;;;;;;;6297683;28;20037;-69
2024/01/21 05:37:13;;;;;;;4.95;4.43;;;;;;;;;;6283689;28;20550;-70
2024/01/21 05:40:15;;;;;;;4.28;2.70;;;;;;;;;;6286185;28;20052;-70
2024/01/21 05:43:18;;;;;;;6.93;4.90;;;;;;;;;;6287531;28;20109;-69
2024/01/21 05:46:20;;;;;;;6.68;6.18;;;;;;;;;;6287150;28;20037;-70
2024/01/21 05:49:23;;;;;;;2.78;2.30;;;;;;;;;;6286715;28;20121;-70
2024/01/21 05:52:25;;;;;;;6.07;3.47;;;;;;;;;;6284416;28;20044;-71
2024/01/21 05:55:27;;;;;;;3.20;1.80;;;;;;;;;;6286442;28;20059;-70
2024/01/21 05:58:29;;;;;;;4.10;3.65;;;;;;;;;;6286947;28;20139;-69
2024/01/21 06:01:31;;;;;;;2.92;2.70;;;;;;;;;;6286408;28;20052;-69
2024/01/21 06:04:34;;;;;;;15.57;4.00;;;;;;;;;;6286209;28;20123;-69
2024/01/21 06:07:36;;;;;;;6.38;4.50;;;;;;;;;;6282597;28;20066;-69
2024/01/21 06:10:39;;;;;;;10.82;4.50;;;;;;;;;;6281566;28;20036;-68
2024/01/21 06:13:41;;;;;;;6.78;5.90;;;;;;;;;;6278322;28;20055;-68
2024/01/21 06:16:43;;;;;;;15.95;6.45;;;;;;;;;;6285480;28;20098;-69
2024/01/21 06:19:45;;;;;;;10.18;7.22;;;;;;;;;;6279466;28;20999;-70
2024/01/21 06:22:47;;;;;;;7.35;5.03;;;;;;;;;;6282574;28;20045;-68
2024/01/21 06:25:49;;;;;;;7.38;5.65;;;;;;;;;;6264534;28;21081;-69
2024/01/21 06:28:51;;;;;;;4.80;4.18;;;;;;;;;;6279612;28;20056;-70
2024/01/21 06:31:53;;;;;;;6.60;4.60;;;;;;;;;;6279857;28;20505;-70
2024/01/21 06:34:56;;;;;;;11.00;4.93;;;;;;;;;;6276325;28;20087;-70
2024/01/21 06:37:58;;;;;;;8.38;4.85;;;;;;;;;;6268793;28;20045;-70
2024/01/21 06:41:00;;;;;;;5.38;4.32;;;;;;;;;;6278207;28;20512;-71
2024/01/21 06:44:06;;;;;;;14.30;7.28;;;;;;;;;;6282005;28;20048;-73
2024/01/21 06:47:08;;;;;;;30.05;18.30;;;;;;;;;;6285192;28;20961;-71
2024/01/21 06:50:11;;;;;;;7.65;4.75;;;;;;;;;;6291732;28;20567;-71
2024/01/21 06:53:13;;;;;;;8.13;6.68;;;;;;;;;;6284381;28;20517;-70
2024/01/21 06:56:15;;;;;;;11.93;8.27;;;;;;;;;;6285099;28;20050;-70
2024/01/21 06:59:18;;;;;;;11.20;6.32;;;;;;;;;;6285546;28;20048;-68
2024/01/21 07:02:23;;;;;;;9.27;6.30;;;;;;;;;;6283786;28;20060;-70
2024/01/21 07:05:25;;;;;;;29.15;16.50;;;;;;;;;;6280639;28;20103;-71
2024/01/21 07:08:27;;;;;;;12.10;9.10;;;;;;;;;;6286331;28;20036;-70
2024/01/21 07:11:31;;;;;;;35.13;20.92;;;;;;;;;;6280044;28;20466;-71
2024/01/21 07:14:34;;;;;;;22.20;14.23;;;;;;;;;;6276881;28;20060;-70
2024/01/21 07:17:36;;;;;;;21.67;12.52;;;;;;;;;;6282153;28;20078;-71
2024/01/21 07:20:38;;;;;;;22.23;12.18;;;;;;;;;;6276223;28;20057;-70
2024/01/21 07:23:40;;;;;;;24.73;12.18;;;;;;;;;;6279827;28;20079;-72
2024/01/21 07:26:42;;;;;;;15.90;9.82;;;;;;;;;;6289080;28;20116;-70
2024/01/21 07:29:44;;;;;;;35.00;24.70;;;;;;;;;;6278377;28;20051;-70
2024/01/21 07:32:47;;;;;;;22.60;13.32;;;;;;;;;;6272443;28;20044;-71
2024/01/21 07:35:53;;;;;;;17.23;13.02;;;;;;;;;;6270112;28;20051;-69
2024/01/21 07:38:55;;;;;;;25.33;12.52;;;;;;;;;;6277034;28;20048;-69
2024/01/21 07:41:57;;;;;;;18.48;10.13;;;;;;;;;;6279242;28;20052;-70
2024/01/21 07:44:59;;;;;;;16.48;10.27;;;;;;;;;;6278577;28;20101;-70
2024/01/21 07:48:01;;;;;;;23.60;13.32;;;;;;;;;;6277194;28;20033;-71
2024/01/21 07:51:03;;;;;;;14.65;8.57;;;;;;;;;;6277144;28;20072;-70
2024/01/21 07:54:07;;;;;;;14.65;9.45;;;;;;;;;;6276694;28;20554;-70
2024/01/21 07:57:10;;;;;;;13.57;8.52;;;;;;;;;;6278223;28;20045;-70
2024/01/21 08:00:15;;;;;;;15.18;8.25;;;;;;;;;;6278986;28;20539;-70
2024/01/21 08:03:17;;;;;;;16.13;9.90;;;;;;;;;;6278094;28;20070;-70
2024/01/21 08:06:20;;;;;;;18.20;12.02;;;;;;;;;;6260428;28;20044;-70
2024/01/21 08:09:22;;;;;;;11.23;8.35;;;;;;;;;;6277502;28;20063;-70
2024/01/21 08:12:27;;;;;;;8.02;4.43;;;;;;;;;;6279829;28;20079;-71
2024/01/21 08:15:29;;;;;;;9.35;5.35;;;;;;;;;;6276412;28;20052;-70
2024/01/21 08:18:36;;;;;;;14.57;9.52;;;;;;;;;;6274375;28;20163;-70
2024/01/21 08:21:39;;;;;;;19.58;14.98;;;;;;;;;;6276708;28;20044;-70
2024/01/21 08:24:43;;;;;;;11.88;7.18;;;;;;;;;;6279056;28;20060;-70
2024/01/21 08:27:45;;;;;;;12.32;7.70;;;;;;;;;;6278631;28;20163;-69
2024/01/21 08:30:47;;;;;;;13.93;6.45;;;;;;;;;;6279177;28;20071;-69
2024/01/21 08:33:50;;;;;;;9.75;8.23;;;;;;;;;;6292733;28;20523;-69
2024/01/21 08:36:53;;;;;;;9.82;5.93;;;;;;;;;;6277694;28;20678;-68
2024/01/21 08:39:55;;;;;;;14.93;8.80;;;;;;;;;;6300679;28;20085;-69
2024/01/21 08:42:57;;;;;;;12.18;6.35;;;;;;;;;;6277336;28;20041;-69
2024/01/21 08:45:59;;;;;;;12.07;8.35;;;;;;;;;;6274518;28;20826;-69
2024/01/21 08:49:03;;;;;;;16.50;10.75;;;;;;;;;;6274814;28;20040;-70
2024/01/21 08:52:06;;;;;;;8.65;5.90;;;;;;;;;;6276968;28;20072;-71
2024/01/21 08:55:08;;;;;;;20.92;8.27;;;;;;;;;;6277631;28;20049;-70
2024/01/21 08:58:10;;;;;;;22.02;10.60;;;;;;;;;;6276973;28;20045;-70
2024/01/21 09:01:15;;;;;;;15.25;9.98;;;;;;;;;;6280715;28;20090;-70
2024/01/21 09:04:18;;;;;;;12.10;6.70;;;;;;;;;;6278766;28;20098;-70
2024/01/21 09:07:20;;;;;;;16.17;8.45;;;;;;;;;;6280271;28;20052;-69
2024/01/21 09:10:22;;;;;;;17.15;10.45;;;;;;;;;;6273769;28;20047;-69
2024/01/21 09:13:24;;;;;;;11.27;8.25;;;;;;;;;;6278817;28;20052;-71
2024/01/21 09:16:26;;;;;;;9.80;6.10;;;;;;;;;;6276005;28;20049;-74
2024/01/21 09:19:28;;;;;;;16.10;12.70;;;;;;;;;;6277444;28;20668;-70
2024/01/21 09:22:30;;;;;;;18.33;11.15;;;;;;;;;;6275245;28;20048;-70
2024/01/21 09:25:32;;;;;;;13.55;7.32;;;;;;;;;;6278597;28;20489;-69
2024/01/21 09:28:36;;;;;;;12.18;8.75;;;;;;;;;;6280563;28;20036;-70
2024/01/21 09:31:39;;;;;;;12.90;8.40;;;;;;;;;;6283316;28;20044;-72
2024/01/21 09:34:43;;;;;;;20.30;13.68;;;;;;;;;;6284799;28;20045;-73
2024/01/21 09:37:45;;;;;;;16.08;9.05;;;;;;;;;;6280165;28;20052;-71
2024/01/21 09:40:53;;;;;;;19.13;12.32;;;;;;;;;;6287446;28;20048;-71
2024/01/21 09:43:56;;;;;;;12.75;8.80;;;;;;;;;;6277448;28;20054;-70
2024/01/21 09:47:00;;;;;;;17.50;9.55;;;;;;;;;;6261153;28;20482;-70
2024/01/21 09:50:05;;;;;;;21.98;11.77;;;;;;;;;;6291341;28;20045;-70
2024/01/21 09:53:07;;;;;;;10.50;6.57;;;;;;;;;;6277230;28;20048;-71
2024/01/21 09:56:11;;;;;;;12.18;10.48;;;;;;;;;;6282585;28;20362;-71
2024/01/21 09:59:13;;;;;;;13.60;8.38;;;;;;;;;;6282539;28;20882;-71
2024/01/21 10:02:16;;;;;;;12.68;6.68;;;;;;;;;;6283318;28;20045;-71
2024/01/21 10:05:20;;;;;;;9.38;4.47;;;;;;;;;;6283545;28;20088;-71
2024/01/21 10:08:22;;;;;;;16.65;9.98;;;;;;;;;;6279789;28;20040;-71
2024/01/21 10:11:24;;;;;;;13.88;8.93;;;;;;;;;;6278624;28;20040;-71
2024/01/21 10:14:31;;;;;;;13.88;7.32;;;;;;;;;;6280997;28;20143;-69
2024/01/21 10:17:34;;;;;;;15.52;10.93;;;;;;;;;;6279456;28;20057;-70
2024/01/21 10:20:36;;;;;;;23.20;12.60;;;;;;;;;;6285313;28;20040;-70
2024/01/21 10:23:38;;;;;;;13.35;7.65;;;;;;;;;;6282231;28;20056;-70
2024/01/21 10:26:45;;;;;;;12.40;8.70;;;;;;;;;;6289033;28;20474;-71
2024/01/21 10:29:48;;;;;;;12.05;7.05;;;;;;;;;;6282053;28;20064;-70
2024/01/21 10:32:51;;;;;;;14.23;11.57;;;;;;;;;;6283109;28;20423;-70
2024/01/21 10:35:55;;;;;;;15.65;9.15;;;;;;;;;;6281620;28;20568;-71
2024/01/21 10:38:59;;;;;;;9.60;7.10;;;;;;;;;;6276806;28;20048;-70
2024/01/21 10:42:01;;;;;;;22.60;14.45;;;;;;;;;;6267935;28;20121;-70
2024/01/21 10:45:04;;;;;;;15.80;9.13;;;;;;;;;;6263466;28;20064;-70
2024/01/21 10:48:07;;;;;;;14.63;6.75;;;;;;;;;;6280569;28;20912;-71
2024/01/21 10:51:10;;;;;;;11.27;6.63;;;;;;;;;;6280652;28;20063;-71
2024/01/21 10:54:13;;;;;;;8.15;6.43;;;;;;;;;;6286723;28;20048;-71
2024/01/21 10:57:17;;;;;;;15.48;7.65;;;;;;;;;;6276120;28;20173;-71
2024/01/21 11:00:20;;;;;;;12.95;11.07;;;;;;;;;;6270918;28;20813;-71
2024/01/21 11:03:31;;;;;;;16.05;7.43;;;;;;;;;;6271585;28;20076;-70
2024/01/21 11:06:36;;;;;;;15.73;9.80;;;;;;;;;;6275721;28;20044;-71
2024/01/21 11:09:39;;;;;;;;;;;;;;;;;;6282890;28;20049;-71
2024/01/21 11:12:41;;;;;;;15.68;9.27;;;;;;;;;;6273239;28;19928;-71
2024/01/21 11:15:47;;;;;;;15.43;9.02;;;;;;;;;;6276881;28;20044;-70
2024/01/21 11:18:50;;;;;;;8.60;5.20;;;;;;;;;;6263419;28;20060;-71
2024/01/21 11:21:55;;;;;;;21.00;11.90;;;;;;;;;;6275828;28;20046;-71
2024/01/21 11:24:58;;;;;;;24.38;13.10;;;;;;;;;;6280852;28;20056;-70
2024/01/21 11:28:03;;;;;;;12.13;5.78;;;;;;;;;;6281728;28;20047;-70
2024/01/21 11:31:07;;;;;;;9.45;6.07;;;;;;;;;;6282253;28;20450;-69
2024/01/21 11:34:12;;;;;;;13.63;6.88;;;;;;;;;;6287858;28;20143;-70
2024/01/21 11:37:14;;;;;;;16.10;13.52;;;;;;;;;;6281894;28;20067;-72
2024/01/21 11:40:16;;;;;;;11.32;6.07;;;;;;;;;;6277546;28;20055;-71
2024/01/21 11:43:18;;;;;;;12.98;6.22;;;;;;;;;;6280509;28;20093;-70
2024/01/21 11:46:20;;;;;;;12.07;8.02;;;;;;;;;;6281882;28;20052;-73
2024/01/21 11:49:24;;;;;;;11.90;6.65;;;;;;;;;;6283692;28;20075;-71
2024/01/21 11:52:26;;;;;;;14.02;7.15;;;;;;;;;;6278582;28;20060;-70
2024/01/21 11:55:37;;;;;;;17.27;9.18;;;;;;;;;;6277067;28;20093;-71
2024/01/21 11:58:40;;;;;;;30.50;11.18;;;;;;;;;;6278693;28;20929;-71
2024/01/21 12:01:42;;;;;;;12.70;6.50;;;;;;;;;;6279972;28;20053;-71
2024/01/21 12:04:46;;;;;;;15.15;7.72;;;;;;;;;;6281151;28;20079;-70
2024/01/21 12:07:48;;;;;;;17.30;12.07;;;;;;;;;;6259993;28;20052;-71
2024/01/21 12:10:51;;;;;;;12.70;7.75;;;;;;;;;;6277237;28;20563;-71
2024/01/21 12:13:53;;;;;;;11.95;6.68;;;;;;;;;;6280427;28;20045;-72
2024/01/21 12:16:56;;;;;;;13.70;7.72;;;;;;;;;;6267326;28;20074;-72
2024/01/21 12:19:58;;;;;;;13.68;8.77;;;;;;;;;;6280987;28;20458;-72
2024/01/21 12:23:00;;;;;;;12.10;7.03;;;;;;;;;;6280753;28;20076;-73
2024/01/21 12:26:02;;;;;;;8.30;5.78;;;;;;;;;;6279257;28;20040;-71
2024/01/21 12:29:09;;;;;;;21.08;13.60;;;;;;;;;;6281407;28;20136;-72
2024/01/21 12:32:16;;;;;;;32.72;17.80;;;;;;;;;;6282274;28;20067;-72
2024/01/21 12:35:18;;;;;;;12.25;7.82;;;;;;;;;;6279574;28;20094;-72
2024/01/21 12:38:21;;;;;;;10.98;6.43;;;;;;;;;;6292920;28;20951;-72
2024/01/21 12:41:23;;;;;;;11.50;8.00;;;;;;;;;;6282271;28;20459;-71
2024/01/21 12:44:25;;;;;;;13.32;10.20;;;;;;;;;;6250200;28;20052;-72
2024/01/21 12:47:28;;;;;;;9.70;5.57;;;;;;;;;;6282467;28;20059;-71
2024/01/21 12:50:30;;;;;;;17.15;8.93;;;;;;;;;;6276596;28;20590;-72
2024/01/21 12:53:32;;;;;;;30.80;17.92;;;;;;;;;;6277801;28;20085;-72
2024/01/21 12:56:34;;;;;;;19.45;14.23;;;;;;;;;;6277248;28;20047;-72
2024/01/21 12:59:37;;;;;;;19.02;12.50;;;;;;;;;;6280604;28;20044;-71
2024/01/21 13:02:40;;;;;;;18.30;11.43;;;;;;;;;;6285263;28;20127;-71
2024/01/21 13:05:42;;;;;;;21.67;14.10;;;;;;;;;;6283358;28;20139;-71
2024/01/21 13:08:45;;;;;;;21.40;15.45;;;;;;;;;;6288067;28;20086;-72
2024/01/21 13:11:48;;;;;;;28.73;20.40;;;;;;;;;;6280681;28;20462;-72
2024/01/21 13:14:50;;;;;;;17.67;12.18;;;;;;;;;;6284708;28;20044;-71
2024/01/21 13:17:52;;;;;;;18.67;12.73;;;;;;;;;;6285370;28;20048;-71
2024/01/21 13:20:54;;;;;;;20.25;16.10;;;;;;;;;;6282327;28;20036;-70
2024/01/21 13:23:58;;;;;;;17.70;11.63;;;;;;;;;;6277573;28;20048;-70
2024/01/21 13:27:07;;;;;;;20.00;14.07;;;;;;;;;;6279304;28;20047;-70
2024/01/21 13:33:31;;;;;;;20.58;12.25;;;;;;;;;;6275957;28;20130;-71
2024/01/21 13:36:34;;;;;;;34.88;19.17;;;;;;;;;;6282550;28;20090;-72
2024/01/21 13:39:39;;;;;;;19.45;13.82;;;;;;;;;;6274376;28;20820;-71
2024/01/21 13:42:42;;;;;;;16.85;11.45;;;;;;;;;;6278118;28;20048;-71
2024/01/21 13:45:44;;;;;;;14.15;8.73;;;;;;;;;;6276097;28;20049;-71
2024/01/21 13:48:46;;;;;;;15.38;10.13;;;;;;;;;;6288329;28;20052;-71
2024/01/21 13:51:48;;;;;;;21.20;11.90;;;;;;;;;;6280757;28;20048;-73
2024/01/21 13:54:51;;;;;;;16.92;9.43;;;;;;;;;;6279463;28;20044;-71
2024/01/21 13:57:53;;;;;;;23.13;12.70;;;;;;;;;;6281653;28;20200;-70
2024/01/21 14:00:56;;;;;;;25.65;11.73;;;;;;;;;;6281796;28;20078;-70
2024/01/21 14:03:59;;;;;;;15.23;8.73;;;;;;;;;;6256680;28;20040;-71
2024/01/21 14:07:01;;;;;;;15.75;9.20;;;;;;;;;;6280435;28;20057;-72
2024/01/21 14:10:03;;;;;;;17.05;8.45;;;;;;;;;;6280400;28;20047;-72
2024/01/21 14:13:06;;;;;;;16.13;8.38;;;;;;;;;;6279582;28;20053;-71
2024/01/21 14:16:08;;;;;;;17.05;10.80;;;;;;;;;;6262756;28;20048;-71
2024/01/21 14:19:10;;;;;;;13.45;8.98;;;;;;;;;;6278998;28;20048;-73
2024/01/21 14:22:12;;;;;;;16.08;8.93;;;;;;;;;;6277125;28;20093;-72
2024/01/21 14:25:18;;;;;;;16.88;10.35;;;;;;;;;;6276557;28;20779;-72
2024/01/21 14:28:22;;;;;;;18.30;11.45;;;;;;;;;;6276350;28;20040;-73
2024/01/21 14:31:26;;;;;;;17.08;8.18;;;;;;;;;;6281302;28;20044;-72
2024/01/21 14:34:28;;;;;;;24.50;13.18;;;;;;;;;;6281782;28;20097;-72
2024/01/21 14:37:30;;;;;;;44.70;16.73;;;;;;;;;;6278090;28;20632;-72
2024/01/21 14:40:32;;;;;;;25.30;12.15;;;;;;;;;;6281749;28;20121;-71
2024/01/21 14:43:34;;;;;;;17.25;10.80;;;;;;;;;;6279122;28;20105;-72
2024/01/21 14:46:37;;;;;;;14.40;8.65;;;;;;;;;;6277308;28;20056;-72
2024/01/21 14:49:39;;;;;;;15.48;8.20;;;;;;;;;;6274741;28;20068;-72
2024/01/21 14:52:42;;;;;;;16.85;10.13;;;;;;;;;;6276507;28;20075;-71
2024/01/21 14:55:45;;;;;;;15.27;8.13;;;;;;;;;;6278977;28;20045;-71
2024/01/21 14:58:50;;;;;;;15.88;8.82;;;;;;;;;;6263831;28;20040;-71
2024/01/21 15:01:52;;;;;;;13.48;8.35;;;;;;;;;;6274101;28;20040;-71
2024/01/21 15:04:54;;;;;;;15.73;9.25;;;;;;;;;;6281201;28;20052;-71
2024/01/21 15:07:56;;;;;;;16.98;9.07;;;;;;;;;;6278002;28;20047;-70
2024/01/21 15:11:00;;;;;;;29.90;15.57;;;;;;;;;;6281185;28;20426;-71
2024/01/21 15:14:31;;;;;;;20.75;13.52;;;;;;;;;;6258031;28;20480;-71
2024/01/21 15:17:33;;;;;;;87.82;26.30;;;;;;;;;;6276139;28;20049;-70
2024/01/21 15:20:35;;;;;;;25.75;12.30;;;;;;;;;;6283422;28;20194;-71
2024/01/21 15:23:37;;;;;;;73.80;27.00;;;;;;;;;;6283519;28;20158;-71
2024/01/21 15:26:39;;;;;;;30.38;15.93;;;;;;;;;;6278850;28;20519;-71
2024/01/21 15:29:42;;;;;;;24.35;11.90;;;;;;;;;;6276260;28;20045;-70
2024/01/21 15:32:44;;;;;;;42.78;23.90;;;;;;;;;;6280932;28;20055;-70
2024/01/21 15:35:46;;;;;;;36.35;20.08;;;;;;;;;;6281599;28;20048;-70
2024/01/21 15:38:49;;;;;;;95.88;45.15;;;;;;;;;;6282340;28;20052;-70
2024/01/21 15:41:52;;;;;;;46.40;25.00;;;;;;;;;;6271115;28;20840;-71
2024/01/21 15:44:55;;;;;;;38.75;17.40;;;;;;;;;;6277842;28;20438;-72
2024/01/21 15:47:56;;;;;;;51.40;22.17;;;;;;;;;;6277780;28;20648;-72
2024/01/21 15:50:59;;;;;;;44.85;25.30;;;;;;;;;;6272439;28;20040;-72
2024/01/21 15:54:01;;;;;;;26.95;15.43;;;;;;;;;;6290306;28;20048;-71
2024/01/21 15:57:03;;;;;;;28.25;16.45;;;;;;;;;;6275593;28;20384;-70
2024/01/21 16:00:07;;;;;;;44.47;24.83;;;;;;;;;;6279096;28;20876;-69
2024/01/21 16:03:09;;;;;;;73.97;39.10;;;;;;;;;;6272104;28;20079;-71
2024/01/21 16:06:11;;;;;;;135.82;56.55;;;;;;;;;;6270650;28;20044;-71
2024/01/21 16:09:13;;;;;;;136.05;53.97;;;;;;;;;;6271516;28;20091;-72
2024/01/21 16:12:19;;;;;;;171.80;64.93;;;;;;;;;;6276741;28;20048;-72
2024/01/21 16:15:21;;;;;;;75.53;36.88;;;;;;;;;;6278158;28;20632;-71
2024/01/21 16:18:24;;;;;;;29.10;17.77;;;;;;;;;;6278207;28;20054;-72
2024/01/21 16:21:27;;;;;;;27.25;13.40;;;;;;;;;;6279068;28;20086;-72
2024/01/21 16:24:35;;;;;;;27.48;14.32;;;;;;;;;;6276672;28;20065;-69
2024/01/21 16:27:37;;;;;;;38.20;25.55;;;;;;;;;;6274789;28;20420;-70
2024/01/21 16:30:39;;;;;;;29.10;16.92;;;;;;;;;;6277578;28;20121;-70
2024/01/21 16:33:41;;;;;;;33.63;16.80;;;;;;;;;;6277389;28;20055;-70
2024/01/21 16:36:43;;;;;;;22.27;15.45;;;;;;;;;;6278125;28;20206;-70
2024/01/21 16:39:46;;;;;;;30.00;17.70;;;;;;;;;;6278066;28;20052;-70
2024/01/21 16:42:48;;;;;;;34.10;15.45;;;;;;;;;;6281163;28;20109;-69
2024/01/21 16:45:51;;;;;;;27.77;12.40;;;;;;;;;;6276148;28;20131;-70
2024/01/21 16:48:53;;;;;;;30.85;14.15;;;;;;;;;;6279742;28;20498;-70
2024/01/21 16:52:03;;;;;;;26.60;16.20;;;;;;;;;;6273288;28;20093;-69
2024/01/21 16:55:06;;;;;;;42.97;24.73;;;;;;;;;;6275140;28;20044;-69
2024/01/21 16:58:08;;;;;;;79.68;42.22;;;;;;;;;;6279915;28;20145;-69
2024/01/21 17:01:10;;;;;;;42.63;19.17;;;;;;;;;;6279019;28;20519;-69
2024/01/21 17:04:13;;;;;;;38.45;17.80;;;;;;;;;;6273981;28;20049;-70
2024/01/21 17:07:15;;;;;;;49.00;25.88;;;;;;;;;;6279806;28;20071;-72
2024/01/21 17:10:26;;;;;;;69.30;38.22;;;;;;;;;;6272627;28;20140;-70
2024/01/21 17:13:28;;;;;;;39.75;21.67;;;;;;;;;;6273587;28;20048;-71
2024/01/21 17:16:30;;;;;;;36.13;19.63;;;;;;;;;;6282310;28;20044;-74
2024/01/21 17:19:32;;;;;;;42.67;22.70;;;;;;;;;;6273820;28;20052;-71
2024/01/21 17:22:34;;;;;;;42.17;23.98;;;;;;;;;;6277081;28;20056;-72
2024/01/21 17:25:36;;;;;;;37.25;22.73;;;;;;;;;;6281096;28;20044;-71
2024/01/21 17:28:38;;;;;;;28.60;17.20;;;;;;;;;;6279473;28;20048;-71
2024/01/21 17:31:40;;;;;;;28.33;17.05;;;;;;;;;;6273367;28;20530;-70
2024/01/21 17:34:43;;;;;;;21.90;13.55;;;;;;;;;;6277577;28;20037;-69
2024/01/21 17:37:46;;;;;;;22.75;12.75;;;;;;;;;;6278178;28;20472;-71
2024/01/21 17:40:48;;;;;;;17.08;11.75;;;;;;;;;;6271305;28;20041;-71
2024/01/21 17:43:50;;;;;;;18.42;11.70;;;;;;;;;;6277162;28;20048;-72
2024/01/21 17:46:52;;;;;;;16.88;12.40;;;;;;;;;;6279731;28;20467;-70
2024/01/21 17:49:54;;;;;;;26.40;16.73;;;;;;;;;;6277934;28;20041;-71
2024/01/21 17:52:56;;;;;;;145.75;70.78;;;;;;;;;;6279387;28;20093;-71
2024/01/21 17:55:58;;;;;;;27.17;14.40;;;;;;;;;;6281232;28;20040;-71
2024/01/21 17:59:01;;;;;;;24.30;14.75;;;;;;;;;;6281789;28;20478;-70
2024/01/21 18:02:04;;;;;;;19.35;12.07;;;;;;;;;;6285549;28;20154;-71